Weather observations for the past three days for
Andrews County Airport
Metric (Imperial)
Date Time (cdt) Wind (kph) Vis. (km) Weather Sky Cond. Temperature (ºC) Relative Humidity Wind Chill (°C) Heat Index (°C) Pressure Precipitation (cm)
Air Dwpt 6 hour altimeter (cm) sea level (mb) 1 hr 3 hr 6 hr
Max. Min.
08 03:55 Calm 16.09 Overcast OVC012 14.7 12.5 87% 76.12 0.0
08 03:35 S 9 16.09 Overcast OVC012 14.4 13.5 94% 76.1 0.0
08 03:15 S 7 16.09 Partly Cloudy SCT014 13.7 12.7 94% 76.12 0.0
08 02:55 S 7 16.09 Partly Cloudy SCT016 14 12.6 91% 76.15 0.0
08 02:35 S 13 16.09 Fair CLR 14.3 12.5 89% 76.15 0.0
08 02:15 S 11 16.09 Fair CLR 14.1 11.7 86% 76.17 0.0
08 01:55 S 7 16.09 Fair CLR 13.3 9 75% 76.2 0.0
08 01:35 S 9 16.09 Fair CLR 13.5 8.7 73% 76.2 0.0
08 01:15 S 6 16.09 Fair CLR 13.8 8.4 70% 76.23 0.0
08 00:55 S 7 16.09 Fair CLR 14 8 24 13.8 67% 76.2 0.0
08 00:15 S 6 16.09 Fair CLR 14.5 7.3 62% 76.25 0.0
07 23:55 S 7 16.09 Fair CLR 15.3 7 58% 76.25 0.0
07 23:35 SE 11 16.09 Partly Cloudy SCT038 15.7 6.8 56% 76.25 0.0
07 23:15 SE 9 16.09 Mostly Cloudy BKN036 15.8 7 56% 76.23 0.0
07 22:55 SE 7 16.09 Mostly Cloudy BKN038 16.6 7 53% 76.2 0.0
07 22:35 SE 7 16.09 Fair CLR 17 6.5 50% 76.23 0.0
07 22:15 SE 15 16.09 Fair CLR 17.3 6.5 49% 76.2 0.0
07 21:55 S 15 16.09 Fair CLR 17.7 7 50% 76.2 0.0
07 21:35 SE 13 16.09 Fair CLR 18.2 7.3 49% 76.2 0.0
07 21:15 SE 20 16.09 Fair CLR 19 7.4 47% 76.15 0.0
07 20:55 S 20 16.09 Fair CLR 19.8 7.5 45% 76.15 0.0
07 20:35 S 15 16.09 Fair CLR 20.8 7.5 42% 76.15 0.0
07 20:15 S 11 16.09 Fair CLR 21.8 7.2 39% 76.12 0.0
07 19:55 S 19 16.09 Fair CLR 23 7 36% 76.1 0.0
07 19:35 SE 13 16.09 Fair CLR 23.5 7 35% 76.1 0.0
07 19:15 SE 11 16.09 Fair CLR 23.7 6.7 34% 76.12 0.0
07 18:55 SE 19 16.09 Fair CLR 23.8 6.5 24.8 18.7 33% 76.12 0.0
07 18:35 SE 13 16.09 Fair CLR 24.1 6.3 32% 25 76.15 0.0
07 18:15 S 13 16.09 Fair CLR 24.5 6.2 31% 25 76.15 0.0
07 17:55 SE 13 G 26 16.09 Fair CLR 24.5 6.1 31% 25 76.15 0.0
07 17:35 SE 11 16.09 Fair CLR 24.3 6.1 31% 25 76.15 0.0
07 17:15 SE 15 G 28 16.09 Fair CLR 24.1 6.2 32% 25 76.17 0.0
07 16:55 SE 15 16.09 Fair CLR 24 6.5 33% 25 76.23 0.0
07 16:35 E 6 16.09 Fair CLR 23.6 6.4 33% 76.25 0.0
07 16:15 Calm 16.09 Fair CLR 23.3 6.6 34% 76.25 0.0
07 15:55 SE 11 16.09 Fair CLR 23.1 6.5 34% 76.28 0.0
07 15:35 Calm 16.09 Fair CLR 22.3 6.5 36% 76.3 0.0
07 14:55 SE 9 16.09 Fair CLR 21.8 6.7 38% 76.33 0.0
07 14:35 E 11 16.09 Fair CLR 21.2 6.5 39% 76.38 0.0
07 14:15 E 7 16.09 Fair CLR 20.8 6.6 40% 76.4 0.0
07 13:55 E 7 16.09 Fair CLR 19.9 6.7 42% 76.43 0.0
07 13:35 E 11 16.09 Fair CLR 19.7 6.7 43% 76.45 0.0
07 13:15 E 13 16.09 Fair CLR 19.8 6.8 43% 76.48 0.0
07 12:55 E 6 16.09 Fair CLR 18.5 6.6 18.5 9.5 46% 76.5 0.0
07 12:35 Calm 16.09 Fair CLR 17.6 6.2 47% 76.53 0.0
07 12:15 NE 11 16.09 Fair CLR 18.1 6.5 47% 76.56 0.0
07 11:55 Calm 16.09 Fair CLR 17.1 6.3 49% 76.58 0.0
07 11:35 E 11 16.09 Fair CLR 16.8 6.5 51% 76.58 0.0
07 11:15 E 13 16.09 Fair CLR 15.6 6.4 55% 76.61 0.0
07 10:55 E 13 16.09 Fair CLR 15 6.5 57% 76.63 0.0
07 10:35 E 13 16.09 Fair CLR 14.4 6.5 59% 76.63 0.0
07 10:15 SE 11 G 26 16.09 Partly Cloudy SCT021 13.6 6.5 62% 76.66 0.0
07 09:55 E 11 16.09 Mostly Cloudy BKN019 12.8 6.5 66% 76.66 0.0
07 09:35 E 17 G 28 16.09 Mostly Cloudy BKN017 12.5 6.5 67% 76.66 0.0
07 09:15 E 20 G 30 16.09 Mostly Cloudy BKN017 11.9 6.4 69% 76.66 0.0
07 08:55 E 22 G 28 16.09 Overcast OVC015 12 6.9 71% 76.66 0.0
07 08:35 E 24 G 33 16.09 Overcast OVC015 11.2 6.9 75% 76.66 0.0
07 08:15 E 24 G 33 16.09 Overcast OVC013 10.8 6.9 77% 76.63 0.0
07 07:55 E 22 G 33 16.09 Overcast OVC013 10.5 7.2 80% 76.61 0.0
07 07:35 E 22 16.09 Overcast OVC015 10.3 7.2 81% 76.58 0.0
07 07:15 E 13 16.09 Mostly Cloudy BKN015 9.7 7.2 85% 8 76.58 0.0
07 06:55 E 15 16.09 Fair CLR 9.7 7 14.4 9.7 83% 8 76.58 0.0
07 06:35 E 17 16.09 Fair CLR 10 7 82% 8 76.56 0.0
07 06:15 E 19 16.09 Fair CLR 10.2 6.8 80% 76.56 0.0
07 05:55 E 17 16.09 Fair CLR 10.5 6.7 78% 76.56 0.0
07 05:35 E 17 16.09 Fair CLR 10.6 6.6 77% 76.56 0.0
07 05:15 E 19 16.09 Fair CLR 10.9 6.5 75% 76.56 0.0
07 04:55 E 19 16.09 Partly Cloudy SCT029 11.3 6.5 73% 76.56 0.0
07 04:35 E 15 16.09 Partly Cloudy SCT029 11.5 6.5 72% 76.56 0.0
07 04:15 NE 19 G 26 16.09 Fair CLR 11.5 6.3 71% 76.53 0.0
07 03:55 E 20 16.09 Fair CLR 11.9 6.2 68% 76.5 0.0
07 03:35 E 20 16.09 Fair CLR 12.1 6.1 67% 76.48 0.0
07 03:15 E 19 16.09 Fair CLR 12.5 6 65% 76.48 0.0
07 02:55 E 24 16.09 Partly Cloudy SCT026 13.1 6 62% 76.45 0.0
07 02:35 NE 22 16.09 Partly Cloudy SCT026 13.3 6.2 62% 76.45 0.0
07 02:15 E 20 16.09 Fair CLR 13.5 6.1 61% 76.43 0.0
07 01:55 E 17 16.09 Fair CLR 13.8 6 60% 76.4 0.0
07 01:35 E 15 16.09 Fair CLR 14 6 59% 76.38 0.0
07 01:15 E 7 16.09 Fair CLR 13.9 6.1 60% 76.38 0.0
07 00:55 E 11 16.09 Fair CLR 14.5 6 24.9 14.5 57% 76.35 0.0
07 00:35 E 7 16.09 Fair CLR 15.2 5.8 54% 76.33 0.0
06 23:55 E 19 G 28 16.09 Fair CLR 16.2 5.8 50% 76.3 0.0
06 23:35 E 17 16.09 Fair CLR 16.8 6.1 49% 76.3 0.0
06 23:15 E 13 16.09 Fair CLR 17 6.5 50% 76.28 0.0
06 22:35 E 15 16.09 Fair CLR 18.3 6.5 46% 76.2 0.0
06 22:15 SE 15 G 31 16.09 Fair CLR 19 6.4 44% 76.15 0.0
06 21:55 SE 24 G 31 16.09 Fair CLR 19.7 6.1 41% 76.12 0.0
06 21:35 SE 20 G 26 16.09 Fair CLR 20.5 5.3 37% 76.1 0.0
06 21:15 SE 13 16.09 Fair CLR 20.4 5.6 38% 76.05 0.0
06 20:55 SE 11 16.09 Fair CLR 21.4 5.2 35% 76.05 0.0
06 20:35 SE 13 16.09 Fair CLR 22.3 5 33% 76.02 0.0
06 20:15 SE 15 16.09 Fair CLR 23.1 4.6 30% 76 0.0
06 19:55 SE 19 16.09 Fair CLR 23.5 4.2 29% 76 0.0
06 19:35 S 15 16.09 Fair CLR 24.2 4.4 28% 25 76 0.0
06 19:15 SE 11 16.09 Fair CLR 24.6 4.2 27% 25 75.97 0.0
06 18:55 SE 15 16.09 Fair CLR 24.9 4.3 25.1 17.9 26% 25 75.97 0.0
06 18:35 SE 13 16.09 Fair CLR 24.8 4.4 27% 25 75.97 0.0
06 18:15 SE 17 16.09 Fair CLR 24.9 4.7 27% 25 75.97 0.0
06 17:55 SE 19 G 26 16.09 Fair CLR 24.6 4.9 28% 25 75.97 0.0
06 17:35 SE 13 16.09 Fair CLR 24.5 5.1 29% 25 75.97 0.0
06 17:15 E 11 G 28 16.09 Fair CLR 24.3 5.4 30% 25 76 0.0
06 16:55 E 20 G 28 16.09 Fair CLR 23.9 5.4 30% 25 76 0.0
06 16:35 SE 13 16.09 Fair CLR 23.8 5.2 30% 76.02 0.0
06 16:15 E 9 16.09 Fair CLR 23.4 5.2 31% 76.05 0.0
06 15:55 SE 9 16.09 Fair CLR 23.1 5.3 32% 76.05 0.0
06 15:35 E 13 16.09 Fair CLR 23.6 5.8 32% 76.1 0.0
06 15:15 Calm 16.09 Fair CLR 21.9 5.4 34% 76.12 0.0
06 14:55 Calm 16.09 Fair CLR 21.9 5.8 35% 76.12 0.0
06 14:35 E 7 16.09 Fair CLR 21.2 5.8 37% 76.15 0.0
06 14:15 SE 11 16.09 Fair CLR 20.6 5.9 38% 76.12 0.0
06 13:55 E 15 G 26 16.09 Fair CLR 20.2 6.2 40% 76.15 0.0
06 13:35 SE 11 16.09 Fair CLR 19.8 6.2 41% 76.2 0.0
06 13:15 E 13 16.09 Fair CLR 18.6 6 44% 76.2 0.0
06 12:55 SE 11 16.09 Fair CLR 17.7 6.1 18.4 11.1 47% 76.23 0.0
06 12:35 SE 13 16.09 Fair CLR 17.6 6.3 48% 76.23 0.0
06 12:15 NE 15 G 26 16.09 Fair CLR 16.9 6.3 50% 76.25 0.0
06 11:55 E 17 16.09 Fair CLR 15.9 6.2 53% 76.25 0.0
06 11:35 E 17 16.09 Fair CLR 15.2 5.9 54% 76.25 0.0
06 11:15 NE 19 G 35 16.09 Fair CLR 14.4 5.8 57% 76.25 0.0
06 10:55 E 19 16.09 Fair CLR 13.8 5.7 58% 76.25 0.0
06 10:35 E 24 16.09 Fair CLR 12.7 5.4 61% 76.25 0.0
06 10:15 NE 22 G 28 16.09 Fair CLR 12.4 5.2 62% 76.25 0.0
06 09:55 E 19 16.09 Fair CLR 11.9 5.2 64% 76.23 0.0
06 09:35 NE 22 16.09 Fair CLR 11.5 5.1 65% 76.23 0.0
06 09:15 NE 19 16.09 Fair CLR 11.2 5.1 66% 76.23 0.0
06 08:55 NE 20 G 28 16.09 Fair CLR 11.3 5.6 68% 76.2 0.0
06 08:35 NE 19 16.09 Fair CLR 11.3 5.8 69% 76.15 0.0
06 08:15 NE 19 G 26 16.09 Fair CLR 11.9 6.7 71% 76.12 0.0
06 07:55 NE 17 16.09 Fair CLR 11.7 7.1 74% 76.1 0.0
06 07:35 N 24 G 31 16.09 Partly Cloudy SCT120 12.5 7.6 72% 76.1 0.0
06 07:15 E 15 16.09 Fair CLR 13 7.7 70% 76.02 0.0
06 06:55 E 15 16.09 Fair CLR 13.5 8 19.6 13.5 70% 76 0.0
06 06:35 SE 15 16.09 Fair CLR 14 8.2 68% 76 0.0
06 06:15 E 13 16.09 Fair CLR 14.5 8.3 67% 75.97 0.0
06 05:55 E 13 16.09 Fair CLR 15 8.5 65% 75.97 0.0
06 05:35 E 9 16.09 Fair CLR 15.5 8.3 62% 75.97 0.0
06 05:15 E 9 16.09 Fair CLR 16.4 8.5 60% 75.97 0.0
06 04:55 E 9 16.09 Fair CLR 17 8.5 58% 75.9 0.0
06 04:35 E 15 16.09 Fair CLR 17.8 8 53% 75.9 0.0
06 04:15 SW 6 16.09 Fair CLR 18.7 6.5 45% 75.87 0.0
06 03:55 SW 7 16.09 Fair CLR 19 6.2 43% 75.87 0.0
06 03:35 SW 11 16.09 Fair CLR 19.3 6 42% 75.84 0.0
06 03:15 SW 11 16.09 Fair CLR 19.2 6.6 44% 75.84 0.0
06 02:55 SW 9 16.09 Fair CLR 19.6 6.5 43% 75.84 0.0
06 02:35 SW 9 16.09 Fair CLR 18.7 7.1 47% 75.84 0.0
06 02:15 S 9 16.09 Fair CLR 18.1 7.8 51% 75.84 0.0
06 01:55 S 9 16.09 Fair CLR 17.7 8.4 55% 75.84 0.0
06 01:35 S 9 16.09 Fair CLR 17.9 8.4 54% 75.87 0.0
06 01:15 S 15 16.09 Fair CLR 17.4 8.8 57% 75.87 0.0
06 00:55 S 6 16.09 Fair CLR 18.1 8.2 25.1 18 53% 75.84 0.0
06 00:35 S 7 16.09 Fair CLR 18.7 8.1 50% 75.84 0.0
06 00:15 SW 6 16.09 Fair CLR 18.7 8.1 50% 75.82 0.0
05 23:55 S 11 16.09 Fair CLR 18.7 7.9 50% 75.82 0.0
05 23:35 SW 6 16.09 Fair CLR 19.6 7.6 46% 75.82 0.0
05 23:15 W 7 16.09 Fair CLR 19.4 7.6 47% 75.79 0.0
05 22:55 W 6 16.09 Fair CLR 20.1 7.1 43% 75.77 0.0
05 22:35 NW 11 16.09 Fair CLR 20.5 6.7 41% 75.74 0.0
05 22:15 NW 11 16.09 Fair CLR 21.7 5.7 35% 75.74 0.0
05 21:55 Calm 16.09 Fair CLR 21.3 6.3 38% 75.74 0.0
05 21:35 Calm 16.09 Fair CLR 22.6 5.5 33% 75.72 0.0
05 21:15 NW 11 16.09 Fair CLR 22.3 5.8 34% 75.72 0.0
05 20:55 W 7 16.09 Fair CLR 22.9 5.8 33% 75.72 0.0
05 20:35 SW 7 16.09 Fair CLR 23.1 5.7 33% 75.72 0.0
05 20:15 SW 7 16.09 Fair CLR 24.1 5.3 30% 25 75.72 0.0
05 19:55 W 13 16.09 Fair CLR 24.7 5 28% 25 75.72 0.0
05 19:35 W 17 16.09 Fair CLR 25.1 5 27% 25 75.72 0.0
05 18:55 W 22 G 35 16.09 Fair CLR 24.5 4.3 26.7 24.5 27% 25 75.74 0.0
05 18:35 W 28 G 41 16.09 Fair CLR 24.7 3.8 26% 25 75.74 0.0
05 18:15 W 22 G 41 16.09 Fair CLR 25 3.6 25% 25 75.74 0.0
05 17:55 W 26 G 35 16.09 Fair CLR 25.1 3.8 25% 25 75.72 0.0
05 17:35 W 15 G 30 16.09 Fair CLR 25.1 4.2 26% 25 75.72 0.0
05 17:15 W 26 G 33 16.09 Fair CLR 25.4 3.8 25% 25 75.74 0.0
05 16:55 W 28 16.09 Fair CLR 25.9 3.3 23% 26 75.74 0.0
05 16:35 W 26 G 35 16.09 Fair CLR 26.1 3.1 23% 26 75.77 0.0
05 16:15 W 15 16.09 Fair CLR 26.3 3.7 23% 26 75.74 0.0
05 15:55 W 19 G 28 16.09 Fair CLR 25.9 3.8 24% 26 75.79 0.0
05 15:35 W 19 G 26 16.09 Fair CLR 25.7 3.9 24% 25 75.79 0.0
05 15:15 W 28 G 41 16.09 Fair CLR 25.6 3 23% 25 75.79 0.0
05 14:55 W 26 G 50 16.09 Fair CLR 25.8 1.7 21% 25 75.79 0.0
05 14:35 W 31 G 44 16.09 Fair CLR 26.2 1.5 20% 26 75.82 0.0
05 14:15 W 26 G 39 16.09 Fair CLR 26.2 2.5 22% 26 75.82 0.0
05 13:55 W 30 G 50 16.09 Fair CLR 26 2.8 22% 26 75.82 0.0
05 13:35 W 39 G 48 16.09 Fair and Breezy CLR 26.7 2.9 21% 26 75.84 0.0
05 13:15 W 22 G 39 16.09 Fair CLR 26 2.8 22% 26 75.84 0.0
05 12:55 W 19 G 33 16.09 Fair CLR 26.6 3.2 26.6 18 22% 26 75.84 0.0
05 12:15 W 24 G 33 16.09 Fair CLR 26 2.7 22% 26 75.84 0.0
05 11:55 W 24 G 35 16.09 Fair CLR 26 2.4 22% 26 75.84 0.0
05 11:35 W 24 16.09 Fair CLR 26.1 2.5 22% 26 75.84 0.0
05 11:15 W 22 G 30 16.09 Fair CLR 25.6 2.4 22% 25 75.82 0.0
05 10:55 W 17 G 37 16.09 Fair CLR 25.3 2.1 22% 25 75.82 0.0
05 10:35 W 22 G 35 16.09 Fair CLR 25.4 1.9 22% 25 75.82 0.0
05 10:15 W 19 G 33 16.09 Fair CLR 25.4 2.2 22% 25 75.79 0.0
05 09:55 NW 17 16.09 Fair CLR 24.6 2.9 24% 25 75.79 0.0
05 09:35 NW 13 16.09 Fair CLR 24 3 25% 25 75.77 0.0
05 09:15 W 11 16.09 Fair CLR 22.6 3.8 29% 75.77 0.0
05 08:55 W 11 16.09 Fair CLR 21.8 3.3 30% 75.77 0.0
05 08:35 W 7 16.09 Fair CLR 21.2 4 32% 75.74 0.0
05 08:15 W 17 16.09 Fair CLR 20.1 4.6 36% 75.74 0.0
05 07:55 W 13 16.09 Fair CLR 18.8 6.2 44% 75.72 0.0
05 07:35 SW 9 16.09 Fair CLR 18.1 7.3 49% 75.69 0.0
05 07:15 SW 15 16.09 Fair CLR 18.7 6.5 45% 75.69 0.0
05 06:55 SW 17 16.09 Fair CLR 17.9 8.1 22.8 17.3 53% 75.67 0.0
05 06:35 SW 13 16.09 Fair CLR 17.3 7.4 52% 75.67 0.0
05 06:15 SW 13 16.09 Fair CLR 18.7 6.4 45% 75.64 0.0
05 05:55 SW 13 16.09 Fair CLR 19.1 6.6 44% 75.64 0.0
05 05:15 SW 17 16.09 Fair CLR 19.6 9.1 51% 75.67 0.0
05 04:55 SW 19 16.09 Fair CLR 19.5 8.9 51% 75.64 0.0
05 04:35 SW 19 16.09 Fair CLR 20.2 4.5 36% 75.64 0.0
05 04:15 SW 17 16.09 Fair CLR 19.5 6.2 42% 75.62 0.0
Date Time (cdt) Wind (kph) Vis. (km) Weather Sky Cond. Air Dwpt Max. Min. Relative Humidity Wind Chill (°C) Heat Index (°C) altimeter (cm) sea level (mb) 1 hr 3 hr 6 hr
6 hour
Temperature (ºC) Pressure Precipitation (cm)